sensor_id;sensor_type;location;lat;lon;timestamp;P1;durP1;ratioP1;P2;durP2;ratioP2
72920;SDS011;61064;51.654;5.476;2023-04-24T00:02:11;14.75;;;7.20;;
72920;SDS011;61064;51.654;5.476;2023-04-24T00:04:37;13.68;;;7.80;;
72920;SDS011;61064;51.654;5.476;2023-04-24T00:07:06;15.23;;;8.37;;
72920;SDS011;61064;51.654;5.476;2023-04-24T00:09:32;14.27;;;8.15;;
72920;SDS011;61064;51.654;5.476;2023-04-24T00:11:58;14.18;;;7.93;;
72920;SDS011;61064;51.654;5.476;2023-04-24T00:14:24;13.18;;;7.50;;
72920;SDS011;61064;51.654;5.476;2023-04-24T00:16:50;14.53;;;8.10;;
72920;SDS011;61064;51.654;5.476;2023-04-24T00:19:15;12.67;;;7.60;;
72920;SDS011;61064;51.654;5.476;2023-04-24T00:21:41;13.05;;;7.13;;
72920;SDS011;61064;51.654;5.476;2023-04-24T00:24:07;13.20;;;7.40;;
72920;SDS011;61064;51.654;5.476;2023-04-24T00:26:34;13.88;;;7.78;;
72920;SDS011;61064;51.654;5.476;2023-04-24T00:28:59;13.47;;;7.37;;
72920;SDS011;61064;51.654;5.476;2023-04-24T00:31:25;14.57;;;7.97;;
72920;SDS011;61064;51.654;5.476;2023-04-24T00:33:50;15.53;;;7.70;;
72920;SDS011;61064;51.654;5.476;2023-04-24T00:36:15;13.60;;;7.37;;
72920;SDS011;61064;51.654;5.476;2023-04-24T00:38:41;14.97;;;8.10;;
72920;SDS011;61064;51.654;5.476;2023-04-24T00:41:06;13.93;;;8.47;;
72920;SDS011;61064;51.654;5.476;2023-04-24T00:43:32;16.97;;;9.13;;
72920;SDS011;61064;51.654;5.476;2023-04-24T00:45:57;16.07;;;9.40;;
72920;SDS011;61064;51.654;5.476;2023-04-24T00:48:24;15.70;;;8.68;;
72920;SDS011;61064;51.654;5.476;2023-04-24T00:50:50;17.23;;;9.88;;
72920;SDS011;61064;51.654;5.476;2023-04-24T00:53:15;18.03;;;9.70;;
72920;SDS011;61064;51.654;5.476;2023-04-24T00:55:41;19.60;;;10.50;;
72920;SDS011;61064;51.654;5.476;2023-04-24T00:58:07;19.27;;;10.67;;
72920;SDS011;61064;51.654;5.476;2023-04-24T01:00:32;18.10;;;9.93;;
72920;SDS011;61064;51.654;5.476;2023-04-24T01:02:59;19.03;;;10.67;;
72920;SDS011;61064;51.654;5.476;2023-04-24T01:05:29;20.05;;;11.00;;
72920;SDS011;61064;51.654;5.476;2023-04-24T01:07:54;20.27;;;11.43;;
72920;SDS011;61064;51.654;5.476;2023-04-24T01:10:21;23.80;;;11.95;;
72920;SDS011;61064;51.654;5.476;2023-04-24T01:12:47;22.60;;;11.70;;
72920;SDS011;61064;51.654;5.476;2023-04-24T01:15:13;22.63;;;12.30;;
72920;SDS011;61064;51.654;5.476;2023-04-24T01:17:38;21.67;;;11.50;;
72920;SDS011;61064;51.654;5.476;2023-04-24T01:20:04;25.40;;;11.83;;
72920;SDS011;61064;51.654;5.476;2023-04-24T01:22:31;22.17;;;12.75;;
72920;SDS011;61064;51.654;5.476;2023-04-24T01:24:58;24.80;;;12.98;;
72920;SDS011;61064;51.654;5.476;2023-04-24T01:27:23;23.77;;;12.07;;
72920;SDS011;61064;51.654;5.476;2023-04-24T01:29:49;26.27;;;13.05;;
72920;SDS011;61064;51.654;5.476;2023-04-24T01:32:16;24.15;;;12.40;;
72920;SDS011;61064;51.654;5.476;2023-04-24T01:34:42;28.23;;;13.30;;
72920;SDS011;61064;51.654;5.476;2023-04-24T01:37:08;26.83;;;12.98;;
72920;SDS011;61064;51.654;5.476;2023-04-24T01:39:36;26.67;;;12.82;;
72920;SDS011;61064;51.654;5.476;2023-04-24T01:42:01;24.20;;;12.10;;
72920;SDS011;61064;51.654;5.476;2023-04-24T01:44:27;25.47;;;12.20;;
72920;SDS011;61064;51.654;5.476;2023-04-24T01:46:53;24.60;;;12.93;;
72920;SDS011;61064;51.654;5.476;2023-04-24T01:49:20;20.70;;;11.50;;
72920;SDS011;61064;51.654;5.476;2023-04-24T01:51:45;21.67;;;11.37;;
72920;SDS011;61064;51.654;5.476;2023-04-24T01:54:12;20.08;;;11.70;;
72920;SDS011;61064;51.654;5.476;2023-04-24T01:56:39;21.40;;;11.57;;
72920;SDS011;61064;51.654;5.476;2023-04-24T01:59:12;22.95;;;12.35;;
72920;SDS011;61064;51.654;5.476;2023-04-24T02:01:38;23.30;;;12.98;;
72920;SDS011;61064;51.654;5.476;2023-04-24T02:04:04;27.35;;;13.38;;
72920;SDS011;61064;51.654;5.476;2023-04-24T02:06:30;29.90;;;14.60;;
72920;SDS011;61064;51.654;5.476;2023-04-24T02:08:57;29.52;;;15.27;;
72920;SDS011;61064;51.654;5.476;2023-04-24T02:11:23;29.88;;;16.38;;
72920;SDS011;61064;51.654;5.476;2023-04-24T02:13:48;32.17;;;16.27;;
72920;SDS011;61064;51.654;5.476;2023-04-24T02:16:15;28.67;;;15.55;;
72920;SDS011;61064;51.654;5.476;2023-04-24T02:18:40;33.33;;;16.73;;
72920;SDS011;61064;51.654;5.476;2023-04-24T02:21:09;32.87;;;16.53;;
72920;SDS011;61064;51.654;5.476;2023-04-24T02:23:34;31.70;;;15.95;;
72920;SDS011;61064;51.654;5.476;2023-04-24T02:26:00;33.30;;;17.40;;
72920;SDS011;61064;51.654;5.476;2023-04-24T02:28:25;33.73;;;17.00;;
72920;SDS011;61064;51.654;5.476;2023-04-24T02:30:51;34.03;;;16.47;;
72920;SDS011;61064;51.654;5.476;2023-04-24T02:33:16;31.38;;;16.55;;
72920;SDS011;61064;51.654;5.476;2023-04-24T02:35:41;33.77;;;17.03;;
72920;SDS011;61064;51.654;5.476;2023-04-24T02:38:07;33.13;;;16.90;;
72920;SDS011;61064;51.654;5.476;2023-04-24T02:40:32;32.87;;;16.43;;
72920;SDS011;61064;51.654;5.476;2023-04-24T02:42:57;31.30;;;15.77;;
72920;SDS011;61064;51.654;5.476;2023-04-24T02:45:23;28.40;;;16.00;;
72920;SDS011;61064;51.654;5.476;2023-04-24T02:47:48;33.93;;;16.23;;
72920;SDS011;61064;51.654;5.476;2023-04-24T02:50:13;31.77;;;15.33;;
72920;SDS011;61064;51.654;5.476;2023-04-24T02:52:39;30.80;;;14.65;;
72920;SDS011;61064;51.654;5.476;2023-04-24T02:55:04;27.07;;;14.57;;
72920;SDS011;61064;51.654;5.476;2023-04-24T02:57:33;26.30;;;14.18;;
72920;SDS011;61064;51.654;5.476;2023-04-24T03:00:02;26.23;;;13.70;;
72920;SDS011;61064;51.654;5.476;2023-04-24T03:02:28;28.75;;;13.90;;
72920;SDS011;61064;51.654;5.476;2023-04-24T03:04:53;27.67;;;13.90;;
72920;SDS011;61064;51.654;5.476;2023-04-24T03:07:18;34.63;;;14.03;;
72920;SDS011;61064;51.654;5.476;2023-04-24T03:09:45;25.10;;;13.48;;
72920;SDS011;61064;51.654;5.476;2023-04-24T03:12:11;24.77;;;13.93;;
72920;SDS011;61064;51.654;5.476;2023-04-24T03:14:36;24.67;;;12.93;;
72920;SDS011;61064;51.654;5.476;2023-04-24T03:17:02;26.67;;;14.63;;
72920;SDS011;61064;51.654;5.476;2023-04-24T03:19:27;25.17;;;13.10;;
72920;SDS011;61064;51.654;5.476;2023-04-24T03:21:52;25.57;;;13.30;;
72920;SDS011;61064;51.654;5.476;2023-04-24T03:24:17;28.83;;;14.47;;
72920;SDS011;61064;51.654;5.476;2023-04-24T03:26:43;23.80;;;13.50;;
72920;SDS011;61064;51.654;5.476;2023-04-24T03:29:08;22.73;;;13.23;;
72920;SDS011;61064;51.654;5.476;2023-04-24T03:31:33;24.53;;;13.53;;
72920;SDS011;61064;51.654;5.476;2023-04-24T03:33:59;23.50;;;13.23;;
72920;SDS011;61064;51.654;5.476;2023-04-24T03:36:24;27.57;;;13.07;;
72920;SDS011;61064;51.654;5.476;2023-04-24T03:38:51;22.40;;;12.52;;
72920;SDS011;61064;51.654;5.476;2023-04-24T03:41:16;23.20;;;12.63;;
72920;SDS011;61064;51.654;5.476;2023-04-24T03:43:41;23.57;;;13.00;;
72920;SDS011;61064;51.654;5.476;2023-04-24T03:46:07;24.40;;;13.00;;
72920;SDS011;61064;51.654;5.476;2023-04-24T03:48:34;27.63;;;13.40;;
72920;SDS011;61064;51.654;5.476;2023-04-24T03:50:59;25.67;;;12.98;;
72920;SDS011;61064;51.654;5.476;2023-04-24T03:53:25;22.30;;;12.13;;
72920;SDS011;61064;51.654;5.476;2023-04-24T03:55:51;21.27;;;11.85;;
72920;SDS011;61064;51.654;5.476;2023-04-24T03:58:18;21.33;;;11.40;;
72920;SDS011;61064;51.654;5.476;2023-04-24T04:00:43;25.07;;;12.07;;
72920;SDS011;61064;51.654;5.476;2023-04-24T04:03:09;21.55;;;11.02;;
72920;SDS011;61064;51.654;5.476;2023-04-24T04:05:34;23.00;;;11.50;;
72920;SDS011;61064;51.654;5.476;2023-04-24T04:08:00;21.23;;;11.37;;
72920;SDS011;61064;51.654;5.476;2023-04-24T04:10:25;20.35;;;10.70;;
72920;SDS011;61064;51.654;5.476;2023-04-24T04:12:51;22.80;;;10.93;;
72920;SDS011;61064;51.654;5.476;2023-04-24T04:15:16;22.10;;;11.70;;
72920;SDS011;61064;51.654;5.476;2023-04-24T04:17:41;20.73;;;10.27;;
72920;SDS011;61064;51.654;5.476;2023-04-24T04:20:07;19.30;;;10.90;;
72920;SDS011;61064;51.654;5.476;2023-04-24T04:22:35;20.65;;;10.52;;
72920;SDS011;61064;51.654;5.476;2023-04-24T04:25:01;20.73;;;11.02;;
72920;SDS011;61064;51.654;5.476;2023-04-24T04:27:26;20.70;;;10.10;;
72920;SDS011;61064;51.654;5.476;2023-04-24T04:29:53;21.50;;;10.27;;
72920;SDS011;61064;51.654;5.476;2023-04-24T04:32:18;20.67;;;10.20;;
72920;SDS011;61064;51.654;5.476;2023-04-24T04:34:44;20.50;;;10.20;;
72920;SDS011;61064;51.654;5.476;2023-04-24T04:37:10;21.60;;;10.00;;
72920;SDS011;61064;51.654;5.476;2023-04-24T04:39:37;19.95;;;10.50;;
72920;SDS011;61064;51.654;5.476;2023-04-24T04:42:02;21.07;;;9.80;;
72920;SDS011;61064;51.654;5.476;2023-04-24T04:44:28;21.75;;;10.00;;
72920;SDS011;61064;51.654;5.476;2023-04-24T04:46:55;19.70;;;9.97;;
72920;SDS011;61064;51.654;5.476;2023-04-24T04:49:21;20.27;;;9.75;;
72920;SDS011;61064;51.654;5.476;2023-04-24T04:51:48;19.42;;;9.88;;
72920;SDS011;61064;51.654;5.476;2023-04-24T04:54:14;20.75;;;10.07;;
72920;SDS011;61064;51.654;5.476;2023-04-24T04:56:40;21.27;;;10.03;;
72920;SDS011;61064;51.654;5.476;2023-04-24T04:59:06;20.05;;;9.88;;
72920;SDS011;61064;51.654;5.476;2023-04-24T05:01:34;16.73;;;9.23;;
72920;SDS011;61064;51.654;5.476;2023-04-24T05:03:59;15.75;;;8.52;;
72920;SDS011;61064;51.654;5.476;2023-04-24T05:06:25;17.67;;;9.00;;
72920;SDS011;61064;51.654;5.476;2023-04-24T05:08:51;17.88;;;9.52;;
72920;SDS011;61064;51.654;5.476;2023-04-24T05:11:16;20.93;;;10.37;;
72920;SDS011;61064;51.654;5.476;2023-04-24T05:13:41;17.30;;;9.50;;
72920;SDS011;61064;51.654;5.476;2023-04-24T05:16:07;20.43;;;10.20;;
72920;SDS011;61064;51.654;5.476;2023-04-24T05:18:32;17.77;;;9.73;;
72920;SDS011;61064;51.654;5.476;2023-04-24T05:20:57;19.57;;;9.57;;
72920;SDS011;61064;51.654;5.476;2023-04-24T05:23:22;17.47;;;8.60;;
72920;SDS011;61064;51.654;5.476;2023-04-24T05:25:48;18.20;;;8.50;;
72920;SDS011;61064;51.654;5.476;2023-04-24T05:28:13;14.60;;;7.15;;
72920;SDS011;61064;51.654;5.476;2023-04-24T05:30:39;14.87;;;7.10;;
72920;SDS011;61064;51.654;5.476;2023-04-24T05:33:04;12.27;;;5.90;;
72920;SDS011;61064;51.654;5.476;2023-04-24T05:35:30;13.13;;;5.57;;
72920;SDS011;61064;51.654;5.476;2023-04-24T05:37:56;12.40;;;5.30;;
72920;SDS011;61064;51.654;5.476;2023-04-24T05:40:21;11.57;;;4.80;;
72920;SDS011;61064;51.654;5.476;2023-04-24T05:42:47;10.27;;;4.10;;
72920;SDS011;61064;51.654;5.476;2023-04-24T05:45:12;9.80;;;3.37;;
72920;SDS011;61064;51.654;5.476;2023-04-24T05:47:41;9.75;;;3.45;;
72920;SDS011;61064;51.654;5.476;2023-04-24T05:50:08;9.35;;;3.42;;
72920;SDS011;61064;51.654;5.476;2023-04-24T05:52:34;6.30;;;1.93;;
72920;SDS011;61064;51.654;5.476;2023-04-24T05:55:00;6.40;;;2.00;;
72920;SDS011;61064;51.654;5.476;2023-04-24T05:57:25;5.00;;;1.40;;
72920;SDS011;61064;51.654;5.476;2023-04-24T05:59:51;5.87;;;1.30;;
72920;SDS011;61064;51.654;5.476;2023-04-24T06:02:16;4.60;;;1.15;;
72920;SDS011;61064;51.654;5.476;2023-04-24T06:04:42;4.47;;;0.83;;
72920;SDS011;61064;51.654;5.476;2023-04-24T06:07:10;4.40;;;1.20;;
72920;SDS011;61064;51.654;5.476;2023-04-24T06:09:36;5.13;;;1.20;;
72920;SDS011;61064;51.654;5.476;2023-04-24T06:12:01;5.37;;;1.73;;
72920;SDS011;61064;51.654;5.476;2023-04-24T06:14:27;5.45;;;1.77;;
72920;SDS011;61064;51.654;5.476;2023-04-24T06:16:53;5.17;;;1.80;;
72920;SDS011;61064;51.654;5.476;2023-04-24T06:19:18;4.50;;;1.50;;
72920;SDS011;61064;51.654;5.476;2023-04-24T06:21:43;6.73;;;1.63;;
72920;SDS011;61064;51.654;5.476;2023-04-24T06:24:09;7.40;;;1.90;;
72920;SDS011;61064;51.654;5.476;2023-04-24T06:26:35;5.57;;;1.93;;
72920;SDS011;61064;51.654;5.476;2023-04-24T06:29:00;7.10;;;1.80;;
72920;SDS011;61064;51.654;5.476;2023-04-24T06:31:26;5.47;;;1.70;;
72920;SDS011;61064;51.654;5.476;2023-04-24T06:33:51;4.93;;;1.67;;
72920;SDS011;61064;51.654;5.476;2023-04-24T06:36:17;5.05;;;1.90;;
72920;SDS011;61064;51.654;5.476;2023-04-24T06:38:42;6.00;;;1.90;;
72920;SDS011;61064;51.654;5.476;2023-04-24T06:41:08;7.17;;;2.57;;
72920;SDS011;61064;51.654;5.476;2023-04-24T06:43:34;8.00;;;2.90;;
72920;SDS011;61064;51.654;5.476;2023-04-24T06:46:00;8.83;;;3.60;;
72920;SDS011;61064;51.654;5.476;2023-04-24T06:48:25;8.73;;;4.20;;
72920;SDS011;61064;51.654;5.476;2023-04-24T06:50:51;9.90;;;4.88;;
72920;SDS011;61064;51.654;5.476;2023-04-24T06:53:17;9.57;;;4.30;;
72920;SDS011;61064;51.654;5.476;2023-04-24T06:55:42;9.13;;;4.13;;
72920;SDS011;61064;51.654;5.476;2023-04-24T06:58:09;7.15;;;3.30;;
72920;SDS011;61064;51.654;5.476;2023-04-24T07:00:35;6.63;;;2.80;;
72920;SDS011;61064;51.654;5.476;2023-04-24T07:03:01;9.88;;;3.50;;
72920;SDS011;61064;51.654;5.476;2023-04-24T07:05:27;8.57;;;3.47;;
72920;SDS011;61064;51.654;5.476;2023-04-24T07:07:53;12.23;;;4.22;;
72920;SDS011;61064;51.654;5.476;2023-04-24T07:10:18;10.20;;;4.30;;
72920;SDS011;61064;51.654;5.476;2023-04-24T07:12:45;11.02;;;4.78;;
72920;SDS011;61064;51.654;5.476;2023-04-24T07:15:13;11.95;;;5.20;;
72920;SDS011;61064;51.654;5.476;2023-04-24T07:17:41;14.20;;;5.85;;
72920;SDS011;61064;51.654;5.476;2023-04-24T07:20:10;13.23;;;5.73;;
72920;SDS011;61064;51.654;5.476;2023-04-24T07:22:37;13.82;;;5.57;;
72920;SDS011;61064;51.654;5.476;2023-04-24T07:25:03;15.45;;;6.15;;
72920;SDS011;61064;51.654;5.476;2023-04-24T07:27:29;16.35;;;6.22;;
72920;SDS011;61064;51.654;5.476;2023-04-24T07:29:55;18.70;;;6.70;;
72920;SDS011;61064;51.654;5.476;2023-04-24T07:32:20;13.20;;;5.03;;
72920;SDS011;61064;51.654;5.476;2023-04-24T07:34:45;14.53;;;6.43;;
72920;SDS011;61064;51.654;5.476;2023-04-24T07:37:11;14.57;;;5.70;;
72920;SDS011;61064;51.654;5.476;2023-04-24T07:39:36;14.88;;;5.90;;
72920;SDS011;61064;51.654;5.476;2023-04-24T07:42:01;12.27;;;5.63;;
72920;SDS011;61064;51.654;5.476;2023-04-24T07:44:31;15.10;;;5.85;;
72920;SDS011;61064;51.654;5.476;2023-04-24T07:46:57;14.40;;;5.80;;
72920;SDS011;61064;51.654;5.476;2023-04-24T07:49:22;14.50;;;5.35;;
72920;SDS011;61064;51.654;5.476;2023-04-24T07:51:50;13.77;;;4.97;;
72920;SDS011;61064;51.654;5.476;2023-04-24T07:54:16;14.70;;;4.60;;
72920;SDS011;61064;51.654;5.476;2023-04-24T07:56:41;14.97;;;5.43;;
72920;SDS011;61064;51.654;5.476;2023-04-24T07:59:09;14.40;;;4.50;;
72920;SDS011;61064;51.654;5.476;2023-04-24T08:01:35;13.23;;;4.35;;
72920;SDS011;61064;51.654;5.476;2023-04-24T08:04:00;17.53;;;4.33;;
72920;SDS011;61064;51.654;5.476;2023-04-24T08:06:29;16.92;;;4.50;;
72920;SDS011;61064;51.654;5.476;2023-04-24T08:08:59;17.02;;;5.00;;
72920;SDS011;61064;51.654;5.476;2023-04-24T08:11:25;15.20;;;4.07;;
72920;SDS011;61064;51.654;5.476;2023-04-24T08:13:51;16.48;;;3.75;;
72920;SDS011;61064;51.654;5.476;2023-04-24T08:16:16;16.23;;;3.83;;
72920;SDS011;61064;51.654;5.476;2023-04-24T08:18:41;21.52;;;4.05;;
72920;SDS011;61064;51.654;5.476;2023-04-24T08:21:07;13.70;;;3.67;;
72920;SDS011;61064;51.654;5.476;2023-04-24T08:23:33;21.40;;;4.30;;
72920;SDS011;61064;51.654;5.476;2023-04-24T08:25:58;14.73;;;3.25;;
72920;SDS011;61064;51.654;5.476;2023-04-24T08:28:23;14.47;;;3.53;;
72920;SDS011;61064;51.654;5.476;2023-04-24T08:30:49;12.23;;;2.83;;
72920;SDS011;61064;51.654;5.476;2023-04-24T08:33:19;11.60;;;3.13;;
72920;SDS011;61064;51.654;5.476;2023-04-24T08:35:48;13.48;;;3.10;;
72920;SDS011;61064;51.654;5.476;2023-04-24T08:38:13;13.50;;;2.63;;
72920;SDS011;61064;51.654;5.476;2023-04-24T08:40:39;12.60;;;2.77;;
72920;SDS011;61064;51.654;5.476;2023-04-24T08:43:05;14.23;;;2.78;;
72920;SDS011;61064;51.654;5.476;2023-04-24T08:45:30;14.07;;;2.87;;
72920;SDS011;61064;51.654;5.476;2023-04-24T08:47:57;11.63;;;2.28;;
72920;SDS011;61064;51.654;5.476;2023-04-24T08:50:23;9.90;;;2.22;;
72920;SDS011;61064;51.654;5.476;2023-04-24T08:52:50;12.17;;;2.40;;
72920;SDS011;61064;51.654;5.476;2023-04-24T08:55:18;15.38;;;2.42;;
72920;SDS011;61064;51.654;5.476;2023-04-24T08:57:52;13.55;;;2.60;;
72920;SDS011;61064;51.654;5.476;2023-04-24T09:00:22;12.32;;;2.47;;
72920;SDS011;61064;51.654;5.476;2023-04-24T09:02:51;12.38;;;2.45;;
72920;SDS011;61064;51.654;5.476;2023-04-24T09:05:18;14.30;;;2.37;;
72920;SDS011;61064;51.654;5.476;2023-04-24T09:07:55;13.25;;;1.95;;
72920;SDS011;61064;51.654;5.476;2023-04-24T09:10:22;12.23;;;2.50;;
72920;SDS011;61064;51.654;5.476;2023-04-24T09:12:50;10.95;;;2.20;;
72920;SDS011;61064;51.654;5.476;2023-04-24T09:15:17;13.27;;;2.45;;
72920;SDS011;61064;51.654;5.476;2023-04-24T09:17:43;11.40;;;2.47;;
72920;SDS011;61064;51.654;5.476;2023-04-24T09:20:09;14.65;;;2.28;;
72920;SDS011;61064;51.654;5.476;2023-04-24T09:22:35;12.43;;;1.83;;
72920;SDS011;61064;51.654;5.476;2023-04-24T09:25:05;12.15;;;2.10;;
72920;SDS011;61064;51.654;5.476;2023-04-24T09:27:33;10.30;;;2.00;;
72920;SDS011;61064;51.654;5.476;2023-04-24T09:29:59;7.88;;;1.60;;
72920;SDS011;61064;51.654;5.476;2023-04-24T09:32:25;11.05;;;1.80;;
72920;SDS011;61064;51.654;5.476;2023-04-24T09:37:38;13.85;;;2.20;;
72920;SDS011;61064;51.654;5.476;2023-04-24T09:40:24;9.50;;;1.75;;
72920;SDS011;61064;51.654;5.476;2023-04-24T09:42:54;16.65;;;2.17;;
72920;SDS011;61064;51.654;5.476;2023-04-24T09:45:21;10.60;;;2.00;;
72920;SDS011;61064;51.654;5.476;2023-04-24T09:47:51;7.93;;;1.65;;
72920;SDS011;61064;51.654;5.476;2023-04-24T09:50:20;10.43;;;1.63;;
72920;SDS011;61064;51.654;5.476;2023-04-24T09:52:56;11.60;;;1.80;;
72920;SDS011;61064;51.654;5.476;2023-04-24T09:55:24;9.90;;;1.50;;
72920;SDS011;61064;51.654;5.476;2023-04-24T09:57:54;10.38;;;1.60;;
72920;SDS011;61064;51.654;5.476;2023-04-24T10:00:28;10.43;;;1.70;;
72920;SDS011;61064;51.654;5.476;2023-04-24T10:05:32;9.63;;;1.73;;
72920;SDS011;61064;51.654;5.476;2023-04-24T10:08:03;9.70;;;1.65;;
72920;SDS011;61064;51.654;5.476;2023-04-24T10:10:33;9.30;;;1.63;;
72920;SDS011;61064;51.654;5.476;2023-04-24T10:13:07;13.23;;;1.63;;
72920;SDS011;61064;51.654;5.476;2023-04-24T10:15:35;10.73;;;1.67;;
72920;SDS011;61064;51.654;5.476;2023-04-24T10:18:02;8.70;;;1.40;;
72920;SDS011;61064;51.654;5.476;2023-04-24T10:20:30;10.23;;;1.58;;
72920;SDS011;61064;51.654;5.476;2023-04-24T10:22:56;10.57;;;1.90;;
72920;SDS011;61064;51.654;5.476;2023-04-24T10:25:23;8.35;;;1.35;;
72920;SDS011;61064;51.654;5.476;2023-04-24T10:27:52;10.02;;;1.20;;
72920;SDS011;61064;51.654;5.476;2023-04-24T10:30:19;7.65;;;1.20;;
72920;SDS011;61064;51.654;5.476;2023-04-24T10:32:45;6.95;;;1.50;;
72920;SDS011;61064;51.654;5.476;2023-04-24T10:35:11;6.90;;;1.00;;
72920;SDS011;61064;51.654;5.476;2023-04-24T10:37:39;6.43;;;1.20;;
72920;SDS011;61064;51.654;5.476;2023-04-24T10:40:11;9.75;;;1.02;;
72920;SDS011;61064;51.654;5.476;2023-04-24T10:42:41;6.70;;;1.25;;
72920;SDS011;61064;51.654;5.476;2023-04-24T10:45:15;8.02;;;1.00;;
72920;SDS011;61064;51.654;5.476;2023-04-24T10:50:18;5.22;;;0.65;;
72920;SDS011;61064;51.654;5.476;2023-04-24T10:52:45;4.68;;;0.65;;
72920;SDS011;61064;51.654;5.476;2023-04-24T10:55:16;5.40;;;1.10;;
72920;SDS011;61064;51.654;5.476;2023-04-24T10:58:02;4.82;;;0.82;;
72920;SDS011;61064;51.654;5.476;2023-04-24T11:00:29;5.35;;;0.60;;
72920;SDS011;61064;51.654;5.476;2023-04-24T11:02:55;3.47;;;0.50;;
72920;SDS011;61064;51.654;5.476;2023-04-24T11:05:21;7.57;;;0.70;;
72920;SDS011;61064;51.654;5.476;2023-04-24T11:10:46;4.20;;;0.60;;
72920;SDS011;61064;51.654;5.476;2023-04-24T11:13:21;3.38;;;0.70;;
72920;SDS011;61064;51.654;5.476;2023-04-24T11:16:11;5.53;;;0.82;;
72920;SDS011;61064;51.654;5.476;2023-04-24T11:19:36;7.50;;;0.93;;
72920;SDS011;61064;51.654;5.476;2023-04-24T11:21:47;4.90;;;1.10;;
72920;SDS011;61064;51.654;5.476;2023-04-24T11:32:26;5.17;;;0.70;;
72920;SDS011;61064;51.654;5.476;2023-04-24T11:34:53;4.30;;;0.83;;
72920;SDS011;61064;51.654;5.476;2023-04-24T11:37:26;3.50;;;0.40;;
72920;SDS011;61064;51.654;5.476;2023-04-24T11:39:58;5.47;;;0.60;;
72920;SDS011;61064;51.654;5.476;2023-04-24T11:42:24;4.35;;;0.43;;
72920;SDS011;61064;51.654;5.476;2023-04-24T11:44:51;5.63;;;0.93;;
72920;SDS011;61064;51.654;5.476;2023-04-24T11:47:17;5.83;;;0.73;;
72920;SDS011;61064;51.654;5.476;2023-04-24T11:49:43;5.00;;;0.70;;
72920;SDS011;61064;51.654;5.476;2023-04-24T11:52:08;7.93;;;0.77;;
72920;SDS011;61064;51.654;5.476;2023-04-24T11:54:34;7.60;;;0.90;;
72920;SDS011;61064;51.654;5.476;2023-04-24T11:56:59;5.60;;;0.70;;
72920;SDS011;61064;51.654;5.476;2023-04-24T11:59:29;5.72;;;0.70;;
72920;SDS011;61064;51.654;5.476;2023-04-24T12:01:54;4.90;;;0.60;;
72920;SDS011;61064;51.654;5.476;2023-04-24T12:04:20;5.17;;;0.70;;
72920;SDS011;61064;51.654;5.476;2023-04-24T12:07:01;5.10;;;0.60;;
72920;SDS011;61064;51.654;5.476;2023-04-24T12:09:27;6.50;;;0.70;;
72920;SDS011;61064;51.654;5.476;2023-04-24T12:11:56;6.13;;;0.70;;
72920;SDS011;61064;51.654;5.476;2023-04-24T12:14:22;5.35;;;0.77;;
72920;SDS011;61064;51.654;5.476;2023-04-24T12:16:48;7.10;;;0.67;;
72920;SDS011;61064;51.654;5.476;2023-04-24T12:19:18;6.60;;;0.75;;
72920;SDS011;61064;51.654;5.476;2023-04-24T12:21:58;4.95;;;0.70;;
72920;SDS011;61064;51.654;5.476;2023-04-24T12:24:24;5.85;;;0.80;;
72920;SDS011;61064;51.654;5.476;2023-04-24T12:26:50;5.47;;;0.63;;
72920;SDS011;61064;51.654;5.476;2023-04-24T12:29:19;7.73;;;0.70;;
72920;SDS011;61064;51.654;5.476;2023-04-24T12:31:45;5.93;;;0.82;;
72920;SDS011;61064;51.654;5.476;2023-04-24T12:34:20;6.80;;;1.50;;
72920;SDS011;61064;51.654;5.476;2023-04-24T12:36:47;7.80;;;0.90;;
72920;SDS011;61064;51.654;5.476;2023-04-24T12:39:16;7.55;;;1.15;;
72920;SDS011;61064;51.654;5.476;2023-04-24T12:41:57;10.37;;;2.70;;
72920;SDS011;61064;51.654;5.476;2023-04-24T12:44:33;5.78;;;0.90;;
72920;SDS011;61064;51.654;5.476;2023-04-24T12:47:00;7.18;;;1.33;;
72920;SDS011;61064;51.654;5.476;2023-04-24T12:49:27;7.03;;;1.67;;
72920;SDS011;61064;51.654;5.476;2023-04-24T12:51:53;6.32;;;0.90;;
72920;SDS011;61064;51.654;5.476;2023-04-24T12:54:19;9.50;;;1.90;;
72920;SDS011;61064;51.654;5.476;2023-04-24T12:56:44;6.32;;;1.00;;
72920;SDS011;61064;51.654;5.476;2023-04-24T12:59:11;6.57;;;0.90;;
72920;SDS011;61064;51.654;5.476;2023-04-24T13:01:36;8.05;;;1.05;;
72920;SDS011;61064;51.654;5.476;2023-04-24T13:04:01;5.83;;;0.90;;
72920;SDS011;61064;51.654;5.476;2023-04-24T13:06:27;7.03;;;1.00;;
72920;SDS011;61064;51.654;5.476;2023-04-24T13:08:52;5.17;;;0.80;;
72920;SDS011;61064;51.654;5.476;2023-04-24T13:11:19;5.63;;;0.80;;
72920;SDS011;61064;51.654;5.476;2023-04-24T13:13:46;6.25;;;0.85;;
72920;SDS011;61064;51.654;5.476;2023-04-24T13:16:11;5.40;;;0.60;;
72920;SDS011;61064;51.654;5.476;2023-04-24T13:18:37;6.97;;;0.70;;
72920;SDS011;61064;51.654;5.476;2023-04-24T13:21:02;5.73;;;0.90;;
72920;SDS011;61064;51.654;5.476;2023-04-24T13:23:28;4.57;;;0.80;;
72920;SDS011;61064;51.654;5.476;2023-04-24T13:25:54;4.43;;;0.90;;
72920;SDS011;61064;51.654;5.476;2023-04-24T13:28:22;3.80;;;0.90;;
72920;SDS011;61064;51.654;5.476;2023-04-24T13:30:48;5.32;;;0.90;;
72920;SDS011;61064;51.654;5.476;2023-04-24T13:33:14;6.80;;;1.03;;
72920;SDS011;61064;51.654;5.476;2023-04-24T13:35:39;6.10;;;0.90;;
72920;SDS011;61064;51.654;5.476;2023-04-24T13:38:05;5.60;;;0.87;;
72920;SDS011;61064;51.654;5.476;2023-04-24T13:40:31;5.85;;;1.10;;
72920;SDS011;61064;51.654;5.476;2023-04-24T13:42:57;6.13;;;1.00;;
72920;SDS011;61064;51.654;5.476;2023-04-24T13:45:22;7.13;;;0.97;;
72920;SDS011;61064;51.654;5.476;2023-04-24T13:47:48;8.30;;;1.23;;
72920;SDS011;61064;51.654;5.476;2023-04-24T13:50:13;6.17;;;0.90;;
72920;SDS011;61064;51.654;5.476;2023-04-24T13:52:38;6.17;;;0.80;;
72920;SDS011;61064;51.654;5.476;2023-04-24T13:55:04;5.33;;;0.83;;
72920;SDS011;61064;51.654;5.476;2023-04-24T13:57:33;5.45;;;0.80;;
72920;SDS011;61064;51.654;5.476;2023-04-24T13:59:58;4.63;;;0.63;;
72920;SDS011;61064;51.654;5.476;2023-04-24T14:02:28;6.30;;;0.93;;
72920;SDS011;61064;51.654;5.476;2023-04-24T14:04:54;4.32;;;0.50;;
72920;SDS011;61064;51.654;5.476;2023-04-24T14:07:19;4.43;;;0.50;;
72920;SDS011;61064;51.654;5.476;2023-04-24T14:09:45;5.50;;;0.73;;
72920;SDS011;61064;51.654;5.476;2023-04-24T14:12:10;4.87;;;0.80;;
72920;SDS011;61064;51.654;5.476;2023-04-24T14:14:35;4.93;;;0.70;;
72920;SDS011;61064;51.654;5.476;2023-04-24T14:17:04;5.00;;;0.70;;
72920;SDS011;61064;51.654;5.476;2023-04-24T14:19:29;6.40;;;1.03;;
72920;SDS011;61064;51.654;5.476;2023-04-24T14:21:55;7.07;;;1.00;;
72920;SDS011;61064;51.654;5.476;2023-04-24T14:24:21;7.47;;;1.20;;
72920;SDS011;61064;51.654;5.476;2023-04-24T14:26:46;7.27;;;1.20;;
72920;SDS011;61064;51.654;5.476;2023-04-24T14:29:12;5.95;;;1.10;;
72920;SDS011;61064;51.654;5.476;2023-04-24T14:31:37;7.47;;;1.50;;
72920;SDS011;61064;51.654;5.476;2023-04-24T14:34:03;5.93;;;1.30;;
72920;SDS011;61064;51.654;5.476;2023-04-24T14:36:28;7.53;;;1.30;;
72920;SDS011;61064;51.654;5.476;2023-04-24T14:38:53;6.73;;;1.30;;
72920;SDS011;61064;51.654;5.476;2023-04-24T14:41:19;8.50;;;1.07;;
72920;SDS011;61064;51.654;5.476;2023-04-24T14:43:45;9.23;;;1.63;;
72920;SDS011;61064;51.654;5.476;2023-04-24T14:46:10;5.60;;;1.03;;
72920;SDS011;61064;51.654;5.476;2023-04-24T14:48:35;7.27;;;1.40;;
72920;SDS011;61064;51.654;5.476;2023-04-24T14:51:00;7.53;;;1.00;;
72920;SDS011;61064;51.654;5.476;2023-04-24T14:53:29;9.27;;;1.35;;